createdAt,value
2018-12-11T20:14:51.066Z,3.89
2018-12-11T20:15:50.683Z,3.88
2018-12-11T20:16:52.297Z,3.89
2018-12-11T20:17:50.576Z,3.85
2018-12-11T20:18:50.624Z,3.96
2018-12-11T20:19:51.185Z,3.92
2018-12-11T20:20:51.281Z,3.85
2018-12-11T20:21:50.652Z,3.88
2018-12-11T20:22:50.610Z,3.92
2018-12-11T20:23:50.654Z,3.92
2018-12-11T20:24:50.689Z,4.04
2018-12-11T20:25:50.670Z,3.99
2018-12-11T20:26:51.947Z,4.09
2018-12-11T20:27:52.175Z,4.03
2018-12-11T20:28:51.575Z,4.06
2018-12-11T20:29:50.654Z,4.12
2018-12-11T20:30:50.667Z,4.13
2018-12-11T20:31:50.665Z,4.07
2018-12-11T20:32:50.653Z,4.1
2018-12-11T20:33:50.689Z,4.13
2018-12-11T20:34:51.342Z,4.2
2018-12-11T20:35:51.195Z,4.2
2018-12-11T20:36:51.812Z,4.13
2018-12-11T20:37:51.310Z,4.21
2018-12-11T20:38:50.732Z,4.14
2018-12-11T20:39:51.300Z,4.22
2018-12-11T20:40:51.654Z,4.1
2018-12-11T20:41:51.593Z,4.18
2018-12-11T20:42:50.819Z,4.14
2018-12-11T20:43:50.615Z,4.2
2018-12-11T20:44:51.177Z,4.16
2018-12-11T20:45:50.643Z,4.28
2018-12-11T20:46:51.275Z,4.22
2018-12-11T20:47:51.825Z,4.3
2018-12-11T20:48:50.622Z,4.31
2018-12-11T20:49:51.222Z,4.12
2018-12-11T20:50:50.660Z,4.22
2018-12-11T20:51:50.597Z,4.12
2018-12-11T20:52:50.606Z,4.16
2018-12-11T20:53:51.190Z,4.16
2018-12-11T20:54:51.176Z,4.1
2018-12-11T20:55:50.718Z,4.14
2018-12-11T20:56:51.443Z,4.12
2018-12-11T20:57:50.674Z,4.14
2018-12-11T20:59:09.144Z,4.21
2018-12-11T21:00:09.839Z,4.13
2018-12-11T21:01:09.111Z,4.13
2018-12-11T21:02:09.142Z,4.06
2018-12-11T21:03:09.042Z,4.1
2018-12-11T21:04:09.154Z,4.1
2018-12-11T21:05:09.289Z,4.12
2018-12-11T21:06:09.072Z,4.18
2018-12-11T21:07:09.677Z,4.21
2018-12-11T21:08:09.156Z,4.16
2018-12-11T21:09:09.133Z,4.16
2018-12-11T21:10:10.057Z,4.14
2018-12-11T21:11:09.140Z,4.2
2018-12-11T21:12:09.282Z,4.21
2018-12-11T21:13:09.713Z,4.18
2018-12-11T21:14:09.836Z,4.16
2018-12-11T21:15:09.488Z,4.16
2018-12-11T21:16:14.218Z,4.2
2018-12-11T21:17:09.887Z,4.16
2018-12-11T21:18:09.119Z,4.21
2018-12-11T21:19:09.148Z,4.14
2018-12-11T21:20:09.160Z,4.18
2018-12-11T21:21:09.794Z,4.12
2018-12-11T21:22:09.096Z,4.22
2018-12-11T21:23:09.160Z,4.16
2018-12-11T21:24:09.117Z,4.21
2018-12-11T21:25:09.146Z,4.21
2018-12-11T21:26:09.069Z,4.12
2018-12-11T21:27:09.277Z,4.16
2018-12-11T21:28:09.745Z,4.1
2018-12-11T21:29:08.993Z,4.16
2018-12-11T21:30:09.108Z,4.27
2018-12-11T21:31:09.110Z,4.14
2018-12-11T21:32:09.792Z,4.18
2018-12-11T21:33:08.966Z,4.21
2018-12-11T21:34:09.039Z,4.1
2018-12-11T21:35:09.082Z,4.3
2018-12-11T21:36:09.061Z,4.13
2018-12-11T21:37:08.925Z,4.22
2018-12-11T21:38:08.933Z,4.24
2018-12-11T21:39:09.268Z,4.13
2018-12-11T21:40:10.461Z,4.21
2018-12-11T21:41:09.066Z,4.27
2018-12-11T21:42:08.846Z,4.14
2018-12-11T21:43:08.862Z,4.13
2018-12-11T21:44:08.912Z,4.21
2018-12-11T21:45:09.034Z,4.16
2018-12-11T21:46:11.884Z,4.2
2018-12-11T21:47:08.382Z,4.12
2018-12-11T21:48:09.361Z,4.09
2018-12-11T21:49:08.604Z,4.09
2018-12-11T21:50:08.922Z,4.22
2018-12-11T21:51:08.741Z,4.02
2018-12-11T21:52:08.803Z,4.14
2018-12-11T21:53:08.719Z,4.12
2018-12-11T21:54:08.481Z,4.1
2018-12-11T21:55:08.433Z,4.2
2018-12-11T21:56:08.207Z,4.2
2018-12-11T21:57:07.991Z,4.12
2018-12-11T21:58:08.034Z,4.07
2018-12-11T21:59:07.960Z,4.25
2018-12-11T22:00:08.243Z,4.21
2018-12-11T22:01:07.948Z,4.06
2018-12-11T22:02:08.160Z,4.16
2018-12-11T22:03:07.954Z,4.14
2018-12-11T22:04:08.099Z,4.09
2018-12-11T22:05:08.075Z,4.14
2018-12-11T22:06:08.106Z,4.14
2018-12-11T22:07:12.841Z,4.13
2018-12-11T22:08:08.062Z,4.1
2018-12-11T22:09:08.374Z,4.1
2018-12-11T22:10:08.144Z,4.13
2018-12-11T22:11:08.035Z,4.09
2018-12-11T22:12:08.150Z,4.1
2018-12-11T22:13:08.020Z,4.1
2018-12-11T22:14:08.067Z,4.16
2018-12-11T22:15:22.781Z,4.1
2018-12-11T22:16:09.662Z,4.12
2018-12-11T22:17:43.525Z,4.06
2018-12-11T22:18:45.647Z,4.12
2018-12-11T22:19:08.458Z,4.09
2018-12-11T22:20:08.140Z,4.18
2018-12-11T22:21:07.977Z,4.18
2018-12-11T22:22:08.013Z,4.1
2018-12-11T22:23:42.553Z,4.12
2018-12-11T22:24:08.106Z,4.1
2018-12-11T22:25:08.020Z,4.13
2018-12-11T22:26:08.008Z,4.12
2018-12-11T22:27:07.982Z,4.22
2018-12-11T22:28:08.103Z,4.22
2018-12-11T22:29:08.127Z,4.14
2018-12-11T22:30:08.331Z,4.18
2018-12-11T22:31:08.047Z,4.1
2018-12-11T22:32:20.414Z,4.21
2018-12-11T22:33:07.981Z,4.16
2018-12-11T22:34:07.974Z,4.13
2018-12-11T22:35:07.974Z,4.12
2018-12-11T22:36:08.223Z,4.24
2018-12-11T22:37:08.095Z,4.1
2018-12-11T22:38:08.091Z,4.22
2018-12-11T22:39:07.945Z,4.18
2018-12-11T22:40:08.108Z,4.14
2018-12-11T22:41:08.072Z,4.32
2018-12-11T22:42:07.994Z,4.21
2018-12-11T22:43:08.045Z,4.14
2018-12-11T22:44:08.071Z,4.21
2018-12-11T22:45:08.011Z,4.25
2018-12-11T22:46:07.987Z,4.25
2018-12-11T22:47:08.002Z,4.21
2018-12-11T22:48:08.572Z,4.28
2018-12-11T22:49:08.014Z,4.2
2018-12-11T22:50:08.114Z,4.27
2018-12-11T22:51:07.997Z,4.18
2018-12-11T22:52:08.092Z,4.34
2018-12-11T22:53:07.995Z,4.24
2018-12-11T22:54:08.046Z,4.34
2018-12-11T22:55:08.064Z,4.21
2018-12-11T22:56:08.075Z,4.12
2018-12-11T22:57:08.007Z,4.22
2018-12-11T22:58:08.146Z,4.27
2018-12-11T22:59:08.028Z,4.31
2018-12-11T23:00:08.164Z,4.32
2018-12-11T23:01:08.041Z,4.13
2018-12-11T23:02:08.566Z,4.28
2018-12-11T23:03:08.073Z,4.27
2018-12-11T23:04:08.606Z,4.21
2018-12-11T23:05:09.396Z,4.25
2018-12-11T23:06:08.106Z,4.32
2018-12-11T23:07:08.113Z,4.22
2018-12-11T23:08:08.103Z,4.24
2018-12-11T23:09:08.055Z,4.21
2018-12-11T23:10:08.273Z,4.28
2018-12-11T23:11:08.098Z,4.36
2018-12-11T23:12:08.223Z,4.14
2018-12-11T23:13:08.233Z,4.14
2018-12-11T23:14:08.014Z,4.13
2018-12-11T23:15:08.173Z,4.14
2018-12-11T23:16:08.983Z,4.09
2018-12-11T23:17:08.080Z,4.14
2018-12-11T23:18:08.022Z,4.16
2018-12-11T23:19:08.084Z,4.21
2018-12-11T23:20:08.192Z,4.24
2018-12-11T23:21:08.091Z,4.21
2018-12-11T23:22:08.160Z,4.25
2018-12-11T23:23:08.172Z,4.25
2018-12-11T23:24:08.026Z,4.31
2018-12-11T23:25:12.225Z,4.25
2018-12-11T23:26:08.039Z,4.31
2018-12-11T23:27:08.180Z,4.34
2018-12-11T23:28:08.181Z,4.39
2018-12-11T23:29:08.194Z,4.3
2018-12-11T23:30:09.193Z,4.22
2018-12-11T23:31:08.109Z,4.24
2018-12-11T23:32:08.177Z,4.2
2018-12-11T23:33:08.596Z,4.21
2018-12-11T23:34:08.033Z,4.21
2018-12-11T23:35:09.219Z,4.21
2018-12-11T23:36:15.126Z,4.31
2018-12-11T23:37:17.712Z,4.31
2018-12-11T23:38:13.009Z,4.14
2018-12-11T23:39:13.006Z,4.16
2018-12-11T23:40:13.037Z,4.27
2018-12-11T23:41:13.028Z,4.2
2018-12-11T23:42:12.902Z,4.13
2018-12-11T23:43:12.925Z,4.21
2018-12-11T23:44:13.010Z,4.18
2018-12-11T23:45:14.368Z,4.18
2018-12-11T23:46:13.024Z,4.07
2018-12-11T23:47:16.324Z,4.21
2018-12-11T23:48:12.920Z,4.2
2018-12-11T23:49:12.889Z,4.04
2018-12-11T23:50:13.039Z,4.18
2018-12-11T23:51:12.944Z,4.06
2018-12-11T23:52:12.935Z,4.04
2018-12-11T23:53:12.968Z,4.18
2018-12-11T23:54:12.923Z,4.13
2018-12-11T23:55:12.986Z,4.2
2018-12-11T23:56:12.979Z,4.04
2018-12-11T23:57:12.952Z,4.12
2018-12-11T23:58:12.945Z,4.02
2018-12-11T23:59:12.972Z,4.14
